createdAt,value
2023-05-27T00:00:35.408Z,83.47
2023-05-27T00:03:03.549Z,82.81
2023-05-27T00:05:31.764Z,82.24
2023-05-27T00:07:59.802Z,82.71
2023-05-27T00:10:27.925Z,81.46
2023-05-27T00:12:56.125Z,80.93
2023-05-27T00:15:24.326Z,80.89
2023-05-27T00:17:52.507Z,79.49
2023-05-27T00:20:22.121Z,79.28
2023-05-27T00:22:52.092Z,78.50
2023-05-27T00:25:23.100Z,78.25
2023-05-27T00:27:51.278Z,76.52
2023-05-27T00:30:19.352Z,76.49
2023-05-27T00:32:47.450Z,76.91
2023-05-27T00:35:15.587Z,76.99
2023-05-27T00:37:43.881Z,75.61
2023-05-27T00:40:12.378Z,76.34
2023-05-27T00:42:40.533Z,75.09
2023-05-27T00:45:09.741Z,75.12
2023-05-27T00:47:37.902Z,74.57
2023-05-27T00:50:12.233Z,73.23
2023-05-27T00:52:40.290Z,73.51
2023-05-27T00:55:09.170Z,73.45
2023-05-27T00:57:37.416Z,72.12
2023-05-27T01:00:09.595Z,72.25
2023-05-27T01:02:38.614Z,72.76
2023-05-27T01:05:07.093Z,73.81
2023-05-27T01:07:59.454Z,74.34
2023-05-27T01:10:38.446Z,75.42
2023-05-27T01:13:28.237Z,76.08
2023-05-27T01:15:57.042Z,75.19
2023-05-27T01:18:25.671Z,75.71
2023-05-27T01:20:54.164Z,73.48
2023-05-27T01:23:22.377Z,74.17
2023-05-27T01:25:50.862Z,76.01
2023-05-27T01:28:19.233Z,75.12
2023-05-27T01:30:47.322Z,75.20
2023-05-27T01:33:18.544Z,75.37
2023-05-27T01:35:53.274Z,75.25
2023-05-27T01:38:22.916Z,74.27
2023-05-27T01:40:51.690Z,74.67
2023-05-27T01:43:20.084Z,74.86
2023-05-27T01:45:48.226Z,73.27
2023-05-27T01:48:16.488Z,73.58
2023-05-27T01:50:44.693Z,73.71
2023-05-27T01:53:14.218Z,73.75
2023-05-27T01:55:42.293Z,73.53
2023-05-27T01:58:10.360Z,74.08
2023-05-27T02:00:39.079Z,73.39
2023-05-27T02:03:07.381Z,75.65
2023-05-27T02:05:35.699Z,74.27
2023-05-27T02:08:04.274Z,74.24
2023-05-27T02:10:32.511Z,75.54
2023-05-27T02:13:00.593Z,76.26
2023-05-27T02:15:28.813Z,76.63
2023-05-27T02:18:00.947Z,76.94
2023-05-27T02:20:29.064Z,77.08
2023-05-27T02:22:57.221Z,77.17
2023-05-27T02:25:25.211Z,78.55
2023-05-27T02:27:54.766Z,78.42
2023-05-27T02:30:22.902Z,77.95
2023-05-27T02:32:50.990Z,79.35
2023-05-27T02:35:19.218Z,79.10
2023-05-27T02:37:47.312Z,79.92
2023-05-27T02:40:26.804Z,79.40
2023-05-27T02:42:54.883Z,80.53
2023-05-27T02:45:22.982Z,80.33
2023-05-27T02:47:51.052Z,80.64
2023-05-27T02:50:19.234Z,81.84
2023-05-27T02:52:47.386Z,81.32
2023-05-27T02:55:15.413Z,82.74
2023-05-27T02:57:43.617Z,82.29
2023-05-27T03:00:12.444Z,82.15
2023-05-27T03:02:40.574Z,82.78
2023-05-27T03:05:09.472Z,83.72
2023-05-27T03:07:40.593Z,83.48
2023-05-27T03:10:09.032Z,82.57
2023-05-27T03:12:37.065Z,82.24
2023-05-27T03:15:05.310Z,81.21
2023-05-27T03:17:33.488Z,80.98
2023-05-27T03:20:01.682Z,80.61
2023-05-27T03:22:29.720Z,80.32
2023-05-27T03:24:57.834Z,82.25
2023-05-27T03:27:26.101Z,83.97
2023-05-27T03:29:54.150Z,84.70
2023-05-27T03:32:22.144Z,84.52
2023-05-27T03:34:50.295Z,85.38
2023-05-27T03:37:18.332Z,85.25
2023-05-27T03:39:46.472Z,84.94
2023-05-27T03:42:14.645Z,86.31
2023-05-27T03:44:42.644Z,86.21
2023-05-27T03:47:10.823Z,86.72
2023-05-27T03:49:38.921Z,88.33
2023-05-27T03:52:07.656Z,85.37
2023-05-27T03:54:35.849Z,84.22
2023-05-27T03:57:04.024Z,84.26
2023-05-27T03:59:32.357Z,85.15
2023-05-27T04:02:00.541Z,86.33
2023-05-27T04:04:28.708Z,87.74
2023-05-27T04:06:57.881Z,86.91
2023-05-27T04:09:25.991Z,87.80
2023-05-27T04:11:54.004Z,88.77
2023-05-27T04:14:22.430Z,89.17
2023-05-27T04:16:51.197Z,89.29
2023-05-27T04:19:20.526Z,90.21
2023-05-27T04:21:48.705Z,89.76
2023-05-27T04:24:16.862Z,90.82
2023-05-27T04:26:45.358Z,90.82
2023-05-27T04:29:14.380Z,90.92
2023-05-27T04:31:42.630Z,92.05
2023-05-27T04:34:10.696Z,91.68
2023-05-27T04:36:38.939Z,92.16
2023-05-27T04:39:07.053Z,92.34
2023-05-27T04:41:35.324Z,92.02
2023-05-27T04:44:03.424Z,90.65
2023-05-27T04:46:31.608Z,90.81
2023-05-27T04:48:59.778Z,90.33
2023-05-27T04:51:27.815Z,90.07
2023-05-27T04:53:56.704Z,89.90
2023-05-27T04:56:24.808Z,89.11
2023-05-27T05:01:23.320Z,86.46
2023-05-27T05:03:55.089Z,85.88
2023-05-27T05:06:24.675Z,86.42
2023-05-27T05:08:52.823Z,86.28
2023-05-27T05:11:20.823Z,85.36
2023-05-27T05:13:48.900Z,85.98
2023-05-27T05:16:17.008Z,84.74
2023-05-27T05:18:45.298Z,84.88
2023-05-27T05:21:13.381Z,84.44
2023-05-27T05:23:42.590Z,85.45
2023-05-27T05:26:10.678Z,84.85
2023-05-27T05:28:38.762Z,86.65
2023-05-27T05:31:06.814Z,86.29
2023-05-27T05:33:35.009Z,85.50
2023-05-27T05:36:04.039Z,86.05
2023-05-27T05:38:32.522Z,85.82
2023-05-27T05:41:00.594Z,85.48
2023-05-27T05:43:29.353Z,84.01
2023-05-27T05:45:57.585Z,84.00
2023-05-27T05:48:26.058Z,83.31
2023-05-27T05:50:54.838Z,82.39
2023-05-27T05:53:23.313Z,82.70
2023-05-27T05:55:52.001Z,82.32
2023-05-27T05:58:20.732Z,82.39
2023-05-27T06:00:49.774Z,81.45
2023-05-27T06:03:18.133Z,81.49
2023-05-27T06:05:46.142Z,80.76
2023-05-27T06:08:14.264Z,80.78
2023-05-27T06:10:42.396Z,81.43
2023-05-27T06:13:13.440Z,81.50
2023-05-27T06:15:41.485Z,81.04
2023-05-27T06:18:09.655Z,80.82
2023-05-27T06:20:37.791Z,80.72
2023-05-27T06:23:05.918Z,80.73
2023-05-27T06:25:33.981Z,81.16
2023-05-27T06:28:01.999Z,80.92
2023-05-27T06:30:30.142Z,80.05
2023-05-27T06:32:58.828Z,80.13
2023-05-27T06:35:27.039Z,78.37
2023-05-27T06:37:55.004Z,78.22
2023-05-27T06:40:23.078Z,78.06
2023-05-27T06:42:51.186Z,78.87
2023-05-27T06:45:19.192Z,78.37
2023-05-27T06:47:47.233Z,78.43
2023-05-27T06:50:15.301Z,78.18
2023-05-27T06:52:43.500Z,77.24
2023-05-27T06:55:11.792Z,77.19
2023-05-27T06:57:39.909Z,77.13
2023-05-27T07:00:08.688Z,77.47
2023-05-27T07:02:37.003Z,76.47
2023-05-27T07:05:05.341Z,76.86
2023-05-27T07:07:33.520Z,77.12
2023-05-27T07:10:02.052Z,77.03
2023-05-27T07:12:30.092Z,75.95
2023-05-27T07:14:58.243Z,76.91
2023-05-27T07:17:26.529Z,75.99
2023-05-27T07:19:54.578Z,75.50
2023-05-27T07:22:22.829Z,74.48
2023-05-27T07:24:50.895Z,74.04
2023-05-27T07:27:19.037Z,75.57
2023-05-27T07:29:47.307Z,73.26
2023-05-27T07:32:15.431Z,73.39
2023-05-27T07:34:43.624Z,72.90
2023-05-27T07:37:11.655Z,73.44
2023-05-27T07:39:39.857Z,72.84
2023-05-27T07:42:08.083Z,72.68
2023-05-27T07:44:36.277Z,71.79
2023-05-27T07:47:04.646Z,72.00
2023-05-27T07:49:32.899Z,70.62
2023-05-27T07:52:00.935Z,70.78
2023-05-27T07:54:31.641Z,70.62
2023-05-27T07:57:00.482Z,69.55
2023-05-27T07:59:28.788Z,68.95
2023-05-27T08:01:56.884Z,68.66
2023-05-27T08:04:25.679Z,68.12
2023-05-27T08:06:54.351Z,68.56
2023-05-27T08:09:22.791Z,67.46
2023-05-27T08:11:50.974Z,67.86
2023-05-27T08:14:19.241Z,67.05
2023-05-27T08:16:47.327Z,66.20
2023-05-27T08:19:15.535Z,65.41
2023-05-27T08:21:43.629Z,64.70
2023-05-27T08:24:12.133Z,64.28
2023-05-27T08:26:40.184Z,63.79
2023-05-27T08:29:08.215Z,64.22
2023-05-27T08:31:36.301Z,63.68
2023-05-27T08:34:05.351Z,63.53
2023-05-27T08:36:34.279Z,63.32
2023-05-27T08:39:02.540Z,61.55
2023-05-27T08:41:30.640Z,61.14
2023-05-27T08:44:16.338Z,61.45
2023-05-27T08:46:49.121Z,60.81
2023-05-27T08:49:17.422Z,60.86
2023-05-27T08:51:45.467Z,61.52
2023-05-27T08:54:13.558Z,62.97
2023-05-27T08:56:42.104Z,61.86
2023-05-27T08:59:10.637Z,61.21
2023-05-27T09:01:38.834Z,61.24
2023-05-27T09:04:07.087Z,60.17
2023-05-27T09:06:35.190Z,59.10
2023-05-27T09:09:03.211Z,61.25
2023-05-27T09:11:33.165Z,57.95
2023-05-27T09:14:01.333Z,59.46
2023-05-27T09:16:29.591Z,59.57
2023-05-27T09:18:57.741Z,59.95
2023-05-27T09:21:31.426Z,59.40
2023-05-27T09:24:00.743Z,57.05
2023-05-27T09:26:33.392Z,57.69
2023-05-27T09:29:05.486Z,56.46
2023-05-27T09:31:33.573Z,57.15
2023-05-27T09:34:01.778Z,56.88
2023-05-27T09:36:30.190Z,55.66
2023-05-27T09:38:58.700Z,54.67
2023-05-27T09:41:29.665Z,55.65
2023-05-27T09:43:58.459Z,54.95
2023-05-27T09:46:26.652Z,53.78
2023-05-27T09:48:56.664Z,53.68
2023-05-27T09:51:24.810Z,51.64
2023-05-27T09:53:53.318Z,52.18
2023-05-27T09:56:21.363Z,53.32
2023-05-27T09:58:49.434Z,50.71
2023-05-27T10:01:19.622Z,52.20
2023-05-27T10:03:48.129Z,51.34
2023-05-27T10:06:16.709Z,50.78
2023-05-27T10:08:45.196Z,49.25
2023-05-27T10:11:13.674Z,49.30
2023-05-27T10:13:51.679Z,49.52
2023-05-27T10:16:24.251Z,48.99
2023-05-27T10:18:56.274Z,49.99
2023-05-27T10:21:26.350Z,50.33
2023-05-27T10:24:01.501Z,49.30
2023-05-27T10:26:40.428Z,48.77
2023-05-27T10:29:12.530Z,49.28
2023-05-27T10:31:53.146Z,47.35
2023-05-27T10:34:22.077Z,45.39
2023-05-27T10:37:01.179Z,46.86
2023-05-27T10:39:30.191Z,47.76
2023-05-27T10:41:59.526Z,47.56
2023-05-27T10:44:38.428Z,47.28
2023-05-27T10:47:13.944Z,43.69
2023-05-27T10:49:43.697Z,47.81
2023-05-27T10:52:15.165Z,46.44
2023-05-27T10:54:48.281Z,45.13
2023-05-27T10:57:16.463Z,45.37
2023-05-27T10:59:51.983Z,46.08
2023-05-27T11:02:20.448Z,43.37
2023-05-27T11:04:49.413Z,45.57
2023-05-27T11:07:21.206Z,44.50
2023-05-27T11:09:50.789Z,44.40
2023-05-27T11:12:19.600Z,43.82
2023-05-27T11:14:48.744Z,44.03
2023-05-27T11:17:17.170Z,44.59
2023-05-27T11:19:46.839Z,43.58
2023-05-27T11:22:16.391Z,43.27
2023-05-27T11:24:44.768Z,43.68
2023-05-27T11:27:15.489Z,43.62
2023-05-27T11:29:52.343Z,43.03
2023-05-27T11:32:20.618Z,39.99
2023-05-27T11:34:53.367Z,41.26
2023-05-27T11:37:21.490Z,42.38
2023-05-27T11:39:53.818Z,42.48
2023-05-27T11:42:25.905Z,43.47
2023-05-27T11:44:57.376Z,43.03
2023-05-27T11:47:25.658Z,42.57
2023-05-27T11:49:53.803Z,42.01
2023-05-27T11:52:34.282Z,42.38
2023-05-27T11:55:02.473Z,42.87
2023-05-27T11:57:33.342Z,41.45
2023-05-27T12:00:04.014Z,41.57
2023-05-27T12:02:32.299Z,41.02
2023-05-27T12:05:00.787Z,40.17
2023-05-27T12:07:28.922Z,41.61
2023-05-27T12:13:42.693Z,39.04
2023-05-27T12:16:47.790Z,40.62
2023-05-27T12:19:16.911Z,38.33
2023-05-27T12:21:45.068Z,40.49
2023-05-27T12:24:13.267Z,41.68
2023-05-27T12:26:43.177Z,40.34
2023-05-27T12:29:11.381Z,41.02
2023-05-27T12:31:39.694Z,39.01
2023-05-27T12:34:07.995Z,39.38
2023-05-27T12:36:36.096Z,39.83
2023-05-27T12:39:04.416Z,40.06
2023-05-27T12:41:32.611Z,39.58
2023-05-27T12:44:01.602Z,40.26
2023-05-27T12:46:29.760Z,40.73
2023-05-27T12:48:58.958Z,39.44
2023-05-27T12:51:27.335Z,39.38
2023-05-27T12:53:55.432Z,39.35
2023-05-27T12:56:24.402Z,40.52
2023-05-27T12:58:52.515Z,39.09
2023-05-27T13:01:21.112Z,37.53
2023-05-27T13:03:49.522Z,38.38
2023-05-27T13:06:22.404Z,38.35
2023-05-27T13:08:52.081Z,38.21
2023-05-27T13:11:21.002Z,38.63
2023-05-27T13:13:49.182Z,37.96
2023-05-27T13:16:17.415Z,37.88
2023-05-27T13:18:45.789Z,37.81
2023-05-27T13:21:14.203Z,38.04
2023-05-27T13:23:56.659Z,37.83
2023-05-27T13:26:24.863Z,36.03
2023-05-27T13:28:54.261Z,37.91
2023-05-27T13:31:25.801Z,37.48
2023-05-27T13:33:54.099Z,37.67
2023-05-27T13:36:24.691Z,37.47
2023-05-27T13:38:52.793Z,38.16
2023-05-27T13:41:21.060Z,37.92
2023-05-27T13:43:49.132Z,38.51
2023-05-27T13:46:17.386Z,38.77
2023-05-27T13:48:45.457Z,38.99
2023-05-27T13:51:13.897Z,38.29
2023-05-27T13:53:42.891Z,38.39
2023-05-27T13:56:11.149Z,38.02
2023-05-27T13:58:39.270Z,38.01
2023-05-27T14:01:07.607Z,37.48
2023-05-27T14:03:36.237Z,38.45
2023-05-27T14:06:04.538Z,39.30
2023-05-27T14:08:34.180Z,39.03
2023-05-27T14:11:02.664Z,38.47
2023-05-27T14:13:38.976Z,37.74
2023-05-27T14:16:07.546Z,37.57
2023-05-27T14:18:36.633Z,38.48
2023-05-27T14:21:23.284Z,39.61
2023-05-27T14:23:52.472Z,37.29
2023-05-27T14:26:20.452Z,38.57
2023-05-27T14:28:48.988Z,38.59
2023-05-27T14:31:17.205Z,39.42
2023-05-27T14:33:45.616Z,39.75
2023-05-27T14:36:13.795Z,39.16
2023-05-27T14:38:42.380Z,40.34
2023-05-27T14:41:13.837Z,41.47
2023-05-27T14:43:42.288Z,40.50
2023-05-27T14:46:12.523Z,39.63
2023-05-27T14:48:41.054Z,39.98
2023-05-27T14:51:09.538Z,39.40
2023-05-27T14:53:38.398Z,39.03
2023-05-27T14:56:07.087Z,39.02
2023-05-27T14:58:37.931Z,40.11
2023-05-27T15:01:06.126Z,39.82
2023-05-27T15:03:34.331Z,39.93
2023-05-27T15:06:03.071Z,39.58
2023-05-27T15:08:31.899Z,39.62
2023-05-27T15:11:00.458Z,40.22
2023-05-27T15:13:28.768Z,40.85
2023-05-27T15:15:56.914Z,40.32
2023-05-27T15:18:25.370Z,41.11
2023-05-27T15:20:53.772Z,40.87
2023-05-27T15:23:22.621Z,40.05
2023-05-27T15:25:50.891Z,39.70
2023-05-27T15:28:19.770Z,39.42
2023-05-27T15:30:48.324Z,40.01
2023-05-27T15:33:38.666Z,39.35
2023-05-27T15:36:13.939Z,40.11
2023-05-27T15:38:42.124Z,40.41
2023-05-27T15:41:10.188Z,40.48
2023-05-27T15:43:38.272Z,40.57
2023-05-27T15:46:12.069Z,40.37
2023-05-27T15:48:47.470Z,40.47
2023-05-27T15:51:16.339Z,40.76
2023-05-27T15:53:44.513Z,41.22
2023-05-27T15:56:13.810Z,41.57
2023-05-27T15:58:44.959Z,41.64
2023-05-27T16:01:13.080Z,41.69
2023-05-27T16:03:41.360Z,41.50
2023-05-27T16:06:10.604Z,41.15
2023-05-27T16:08:40.042Z,41.01
2023-05-27T16:11:08.864Z,41.28
2023-05-27T16:13:38.972Z,40.81
2023-05-27T16:16:07.483Z,41.48
2023-05-27T16:18:37.372Z,42.32
2023-05-27T16:21:06.111Z,42.26
2023-05-27T16:23:34.587Z,42.47
2023-05-27T16:26:02.686Z,42.40
2023-05-27T16:28:30.827Z,42.44
2023-05-27T16:30:59.089Z,42.79
2023-05-27T16:33:28.350Z,43.06
2023-05-27T16:35:58.836Z,42.48
2023-05-27T16:38:27.780Z,42.61
2023-05-27T16:40:55.907Z,42.74
2023-05-27T16:43:25.687Z,43.27
2023-05-27T16:45:56.569Z,43.53
2023-05-27T16:48:24.850Z,43.94
2023-05-27T16:50:53.156Z,43.47
2023-05-27T16:53:21.648Z,43.97
2023-05-27T16:55:50.956Z,44.62
2023-05-27T16:58:19.431Z,43.69
2023-05-27T17:00:59.917Z,42.99
2023-05-27T17:03:31.526Z,42.84
2023-05-27T17:06:04.862Z,42.89
2023-05-27T17:08:53.716Z,42.68
2023-05-27T17:11:22.859Z,42.17
2023-05-27T17:13:50.896Z,42.28
2023-05-27T17:16:20.257Z,42.48
2023-05-27T17:18:50.319Z,42.01
2023-05-27T17:21:18.604Z,42.30
2023-05-27T17:23:47.190Z,42.90
2023-05-27T17:26:15.744Z,42.79
2023-05-27T17:28:43.968Z,43.32
2023-05-27T17:31:12.162Z,43.24
2023-05-27T17:33:42.352Z,43.16
2023-05-27T17:36:10.687Z,43.07
2023-05-27T17:38:38.735Z,43.62
2023-05-27T17:41:09.146Z,43.68
2023-05-27T17:43:38.095Z,44.16
2023-05-27T17:46:07.156Z,44.43
2023-05-27T17:48:35.442Z,43.77
2023-05-27T17:51:06.463Z,44.25
2023-05-27T17:53:37.600Z,44.19
2023-05-27T17:56:05.684Z,44.31
2023-05-27T17:58:33.743Z,44.50
2023-05-27T18:01:03.592Z,44.82
2023-05-27T18:03:37.160Z,44.94
2023-05-27T18:06:07.757Z,44.54
2023-05-27T18:08:36.576Z,44.69
2023-05-27T18:11:04.610Z,44.46
2023-05-27T18:13:32.696Z,45.43
2023-05-27T18:16:00.795Z,45.73
2023-05-27T18:18:28.865Z,45.62
2023-05-27T18:20:58.326Z,45.70
2023-05-27T18:23:26.441Z,45.78
2023-05-27T18:25:54.456Z,46.64
2023-05-27T18:28:22.659Z,47.85
2023-05-27T18:30:50.940Z,47.38
2023-05-27T18:33:19.423Z,48.30
2023-05-27T18:35:47.608Z,49.10
2023-05-27T18:38:15.756Z,49.52
2023-05-27T18:40:43.766Z,49.24
2023-05-27T18:43:12.110Z,48.72
2023-05-27T18:45:59.344Z,47.77
2023-05-27T18:48:28.260Z,49.51
2023-05-27T18:50:57.141Z,49.18
2023-05-27T18:53:25.961Z,49.07
2023-05-27T18:55:54.623Z,49.42
2023-05-27T18:58:22.966Z,48.39
2023-05-27T19:00:51.430Z,49.16
2023-05-27T19:03:21.243Z,49.15
2023-05-27T19:05:49.356Z,50.08
2023-05-27T19:08:18.029Z,49.78
2023-05-27T19:10:46.405Z,49.32
2023-05-27T19:13:14.528Z,49.46
2023-05-27T19:15:42.726Z,50.40
2023-05-27T19:18:11.949Z,50.46
2023-05-27T19:20:43.394Z,50.46
2023-05-27T19:23:11.806Z,51.04
2023-05-27T19:25:40.028Z,51.82
2023-05-27T19:28:08.148Z,51.99
2023-05-27T19:30:36.190Z,52.78
2023-05-27T19:33:04.507Z,54.32
2023-05-27T19:35:32.745Z,57.95
2023-05-27T19:38:00.837Z,57.37
2023-05-27T19:40:28.903Z,57.81
2023-05-27T19:42:56.918Z,58.42
2023-05-27T19:45:24.930Z,59.74
2023-05-27T19:47:53.698Z,57.94
2023-05-27T19:50:21.806Z,60.67
2023-05-27T19:52:49.831Z,63.75
2023-05-27T19:55:18.382Z,61.38
2023-05-27T19:57:46.397Z,61.96
2023-05-27T20:00:14.774Z,61.03
2023-05-27T20:02:42.923Z,61.45
2023-05-27T20:05:11.795Z,63.72
2023-05-27T20:07:40.103Z,64.61
2023-05-27T20:10:10.034Z,63.34
2023-05-27T20:12:47.809Z,64.32
2023-05-27T20:15:16.399Z,62.04
2023-05-27T20:17:44.583Z,65.65
2023-05-27T20:20:13.437Z,64.47
2023-05-27T20:22:41.745Z,63.46
2023-05-27T20:25:10.332Z,62.83
2023-05-27T20:27:38.429Z,64.00
2023-05-27T20:30:06.872Z,63.64
2023-05-27T20:32:35.250Z,63.99
2023-05-27T20:35:04.251Z,66.69
2023-05-27T20:37:32.794Z,65.34
2023-05-27T20:40:00.799Z,65.33
2023-05-27T20:42:28.825Z,66.45
2023-05-27T20:44:56.961Z,66.83
2023-05-27T20:47:25.148Z,68.86
2023-05-27T20:49:53.289Z,70.01
2023-05-27T20:52:21.362Z,67.67
2023-05-27T20:54:49.366Z,67.82
2023-05-27T20:57:17.534Z,67.66
2023-05-27T20:59:45.656Z,69.61
2023-05-27T21:02:14.875Z,68.27
2023-05-27T21:04:45.749Z,69.22
2023-05-27T21:07:13.774Z,68.46
2023-05-27T21:09:42.111Z,67.81
2023-05-27T21:12:11.308Z,70.69
2023-05-27T21:14:39.686Z,69.97
2023-05-27T21:17:07.958Z,69.54
2023-05-27T21:19:36.079Z,70.15
2023-05-27T21:22:05.101Z,70.43
2023-05-27T21:24:33.118Z,70.19
2023-05-27T21:27:01.381Z,69.23
2023-05-27T21:29:29.358Z,69.14
2023-05-27T21:31:57.848Z,68.63
2023-05-27T21:34:26.017Z,68.35
2023-05-27T21:36:54.040Z,68.52
2023-05-27T21:39:22.499Z,68.30
2023-05-27T21:41:50.535Z,68.87
2023-05-27T21:44:18.759Z,67.96
2023-05-27T21:46:46.737Z,68.42
2023-05-27T21:49:14.918Z,68.63
2023-05-27T21:51:43.005Z,68.23
2023-05-27T21:54:11.046Z,67.75
2023-05-27T21:56:39.363Z,68.47
2023-05-27T21:59:07.870Z,68.88
2023-05-27T22:01:35.997Z,68.69
2023-05-27T22:04:04.007Z,69.68
2023-05-27T22:06:34.804Z,70.14
2023-05-27T22:09:02.899Z,70.25
2023-05-27T22:11:30.924Z,69.86
2023-05-27T22:13:58.936Z,69.58
2023-05-27T22:16:27.042Z,69.99
2023-05-27T22:18:55.633Z,71.21
2023-05-27T22:21:29.694Z,70.53
2023-05-27T22:23:58.332Z,69.19
2023-05-27T22:26:26.382Z,70.13
2023-05-27T22:28:54.512Z,69.01
2023-05-27T22:31:22.936Z,69.84
2023-05-27T22:33:51.020Z,70.78
2023-05-27T22:36:18.959Z,71.50
2023-05-27T22:38:47.078Z,73.36
2023-05-27T22:41:15.077Z,73.51
2023-05-27T22:43:43.306Z,73.67
2023-05-27T22:46:13.578Z,72.68
2023-05-27T22:48:41.804Z,72.40
2023-05-27T22:51:09.912Z,73.28
2023-05-27T22:53:44.498Z,73.39
2023-05-27T22:56:13.576Z,75.31
2023-05-27T22:58:41.870Z,74.87
2023-05-27T23:01:09.965Z,73.98
2023-05-27T23:03:38.344Z,73.98
2023-05-27T23:06:07.816Z,75.28
2023-05-27T23:08:36.152Z,75.44
2023-05-27T23:11:04.692Z,76.28
2023-05-27T23:13:32.831Z,76.70
2023-05-27T23:16:02.705Z,78.01
2023-05-27T23:18:30.764Z,77.09
2023-05-27T23:20:59.698Z,77.95
2023-05-27T23:23:27.715Z,75.20
2023-05-27T23:25:55.839Z,76.33
2023-05-27T23:28:24.108Z,76.71
2023-05-27T23:30:54.119Z,76.97
2023-05-27T23:33:22.370Z,77.17
2023-05-27T23:35:50.383Z,77.64
2023-05-27T23:38:18.545Z,79.73
2023-05-27T23:40:46.761Z,81.40
2023-05-27T23:43:14.790Z,81.47
2023-05-27T23:45:42.806Z,82.81
2023-05-27T23:48:10.958Z,84.25
2023-05-27T23:50:39.149Z,82.87
2023-05-27T23:53:07.419Z,81.46
2023-05-27T23:55:35.382Z,81.07
2023-05-27T23:58:03.364Z,81.26
